Thibodaux, LA

11:47 AM CST on February 21, 2017 (GMT -0600)
Nob's House Off St. Bernard St. | | Change Station

Elev 23 ft 29.79 °N, 90.84 °W | Updated 2 seconds ago

Partly Cloudy
Partly Cloudy
70.3 °F
Feels Like 76 °F
N
3.6
Wind Variable Wind from ESE
Gusts 4.9 mph

Today
High -- | Low -- °F
--% Chance of Precip.
Yesterday
High -- | Low -- °F
Precip. -- in
Pressure 29.98 in
Visibility 7.0 miles
Clouds Scattered Clouds 2300 ft
Scattered Clouds 3300 ft
Heat Index 76 °F
Dew Point 54 °F
Humidity 56%
Rainfall 0.14 in
Snow Depth Not available.
6:37 AM 5:57 PM
Waning Crescent, 24% visible
METAR KHUM 211648Z 26006KT 7SM SCT023 SCT033 20/15 A2998
Pressure 29.98 in
Visibility 7.0 miles
Clouds Scattered Clouds 2300 ft
Scattered Clouds 3300 ft
Heat Index 76 °F
Dew Point 54 °F
Humidity 56%
Rainfall 0.14 in
Snow Depth Not available.
6:37 AM 5:57 PM
Waning Crescent, 24% visible
METAR KHUM 211648Z 26006KT 7SM SCT023 SCT033 20/15 A2998

Get Your Daily Forecast Email!

Thanks for signing up!

Be on the lookout for a verification email in your inbox.

You'll start receiving the daily forecast at 8 AM.

×

10-Day Weather Forecast

Almanac

Astronomy

Feb. 21, 2017 Rise Set
Actual Time
Civil Twilight
Nautical Twilight
Astronomical Twilight
Moon
Length of Visible Light
Length of Day
Tomorrow will be .
, % of the Moon is Illuminated

Today's Extremes

State Highs State Lows

Community

WunderPhotos

Upload Photos

1,962,540 photos uploaded!

WunderBlog® & News

Nearby

Air Quality

  Air Quality AQ Index Pollutant
Not available.

Snow Depth

Station Depth Elevation

Earthquake Activity

City Distance Mag. Time & Date
Minimum magnitude displayed is 2.5.

Coastal Water Temperatures

Place Temperature

Stations

Nearby Weather Stations

Station Location Temp. Windchill Dew Point Humidity Wind Precip. Elev Updated Type
                   

Watches & Warnings

There are currently no watches in effect.